sensor_id;sensor_type;location;lat;lon;timestamp;P1;durP1;ratioP1;P2;durP2;ratioP2
58990;SDS011;44781;53.444;14.476;2022-12-13T00:01:53;7.80;;;4.30;;
58990;SDS011;44781;53.444;14.476;2022-12-13T00:04:21;9.20;;;5.50;;
58990;SDS011;44781;53.444;14.476;2022-12-13T00:06:50;8.90;;;5.00;;
58990;SDS011;44781;53.444;14.476;2022-12-13T00:09:19;8.80;;;4.70;;
58990;SDS011;44781;53.444;14.476;2022-12-13T00:11:47;7.50;;;4.20;;
58990;SDS011;44781;53.444;14.476;2022-12-13T00:14:15;9.60;;;4.80;;
58990;SDS011;44781;53.444;14.476;2022-12-13T00:16:46;7.70;;;4.60;;
58990;SDS011;44781;53.444;14.476;2022-12-13T00:19:15;8.20;;;4.40;;
58990;SDS011;44781;53.444;14.476;2022-12-13T00:21:43;7.20;;;4.00;;
58990;SDS011;44781;53.444;14.476;2022-12-13T00:24:11;7.90;;;4.30;;
58990;SDS011;44781;53.444;14.476;2022-12-13T00:26:38;7.30;;;4.10;;
58990;SDS011;44781;53.444;14.476;2022-12-13T00:29:06;9.00;;;4.30;;
58990;SDS011;44781;53.444;14.476;2022-12-13T00:31:33;9.60;;;4.50;;
58990;SDS011;44781;53.444;14.476;2022-12-13T00:34:02;8.90;;;4.40;;
58990;SDS011;44781;53.444;14.476;2022-12-13T00:36:29;6.80;;;3.90;;
58990;SDS011;44781;53.444;14.476;2022-12-13T00:38:56;7.50;;;4.30;;
58990;SDS011;44781;53.444;14.476;2022-12-13T00:41:27;8.10;;;4.60;;
58990;SDS011;44781;53.444;14.476;2022-12-13T00:46:25;8.60;;;4.80;;
58990;SDS011;44781;53.444;14.476;2022-12-13T00:48:55;9.00;;;4.20;;
58990;SDS011;44781;53.444;14.476;2022-12-13T00:51:23;7.60;;;4.00;;
58990;SDS011;44781;53.444;14.476;2022-12-13T00:53:51;7.80;;;4.40;;
58990;SDS011;44781;53.444;14.476;2022-12-13T00:56:19;8.20;;;4.10;;
58990;SDS011;44781;53.444;14.476;2022-12-13T00:58:49;7.30;;;4.30;;
58990;SDS011;44781;53.444;14.476;2022-12-13T01:01:17;9.90;;;4.10;;
58990;SDS011;44781;53.444;14.476;2022-12-13T01:03:46;6.90;;;4.00;;
58990;SDS011;44781;53.444;14.476;2022-12-13T01:06:15;8.10;;;4.20;;
58990;SDS011;44781;53.444;14.476;2022-12-13T01:08:45;6.50;;;3.80;;
58990;SDS011;44781;53.444;14.476;2022-12-13T01:11:14;7.50;;;4.30;;
58990;SDS011;44781;53.444;14.476;2022-12-13T01:13:43;7.70;;;3.60;;
58990;SDS011;44781;53.444;14.476;2022-12-13T01:16:13;7.30;;;4.20;;
58990;SDS011;44781;53.444;14.476;2022-12-13T01:18:41;7.00;;;4.10;;
58990;SDS011;44781;53.444;14.476;2022-12-13T01:21:10;8.30;;;4.70;;
58990;SDS011;44781;53.444;14.476;2022-12-13T01:23:39;8.00;;;4.50;;
58990;SDS011;44781;53.444;14.476;2022-12-13T01:26:09;8.20;;;4.10;;
58990;SDS011;44781;53.444;14.476;2022-12-13T01:28:37;6.60;;;3.70;;
58990;SDS011;44781;53.444;14.476;2022-12-13T01:31:09;7.70;;;4.20;;
58990;SDS011;44781;53.444;14.476;2022-12-13T01:33:38;7.30;;;3.50;;
58990;SDS011;44781;53.444;14.476;2022-12-13T01:36:07;6.00;;;3.70;;
58990;SDS011;44781;53.444;14.476;2022-12-13T01:38:37;6.30;;;3.70;;
58990;SDS011;44781;53.444;14.476;2022-12-13T01:41:05;7.30;;;3.30;;
58990;SDS011;44781;53.444;14.476;2022-12-13T01:46:03;6.80;;;3.60;;
58990;SDS011;44781;53.444;14.476;2022-12-13T01:48:30;5.70;;;3.20;;
58990;SDS011;44781;53.444;14.476;2022-12-13T01:51:02;6.20;;;3.00;;
58990;SDS011;44781;53.444;14.476;2022-12-13T01:53:33;6.40;;;3.30;;
58990;SDS011;44781;53.444;14.476;2022-12-13T01:56:08;6.50;;;3.70;;
58990;SDS011;44781;53.444;14.476;2022-12-13T01:58:40;6.10;;;3.10;;
58990;SDS011;44781;53.444;14.476;2022-12-13T02:01:07;6.10;;;3.40;;
58990;SDS011;44781;53.444;14.476;2022-12-13T02:03:34;6.30;;;3.60;;
58990;SDS011;44781;53.444;14.476;2022-12-13T02:06:04;6.60;;;3.50;;
58990;SDS011;44781;53.444;14.476;2022-12-13T02:08:36;6.00;;;3.10;;
58990;SDS011;44781;53.444;14.476;2022-12-13T02:11:08;6.60;;;3.20;;
58990;SDS011;44781;53.444;14.476;2022-12-13T02:13:38;5.20;;;3.00;;
58990;SDS011;44781;53.444;14.476;2022-12-13T02:27:33;5.40;;;3.00;;
58990;SDS011;44781;53.444;14.476;2022-12-13T02:30:19;5.90;;;3.10;;
58990;SDS011;44781;53.444;14.476;2022-12-13T02:36:00;4.60;;;2.60;;
58990;SDS011;44781;53.444;14.476;2022-12-13T02:41:35;4.80;;;2.40;;
58990;SDS011;44781;53.444;14.476;2022-12-13T02:46:39;6.40;;;2.90;;
58990;SDS011;44781;53.444;14.476;2022-12-13T02:49:14;4.30;;;2.30;;
58990;SDS011;44781;53.444;14.476;2022-12-13T02:51:42;4.50;;;2.50;;
58990;SDS011;44781;53.444;14.476;2022-12-13T02:54:11;4.50;;;2.50;;
58990;SDS011;44781;53.444;14.476;2022-12-13T02:56:38;4.80;;;2.30;;
58990;SDS011;44781;53.444;14.476;2022-12-13T02:59:08;6.10;;;2.60;;
58990;SDS011;44781;53.444;14.476;2022-12-13T03:04:59;5.70;;;2.40;;
58990;SDS011;44781;53.444;14.476;2022-12-13T03:08:29;5.40;;;2.70;;
58990;SDS011;44781;53.444;14.476;2022-12-13T03:11:11;5.20;;;2.50;;
58990;SDS011;44781;53.444;14.476;2022-12-13T03:19:04;5.30;;;2.90;;
58990;SDS011;44781;53.444;14.476;2022-12-13T03:21:37;5.50;;;3.10;;
58990;SDS011;44781;53.444;14.476;2022-12-13T03:24:05;6.20;;;2.70;;
58990;SDS011;44781;53.444;14.476;2022-12-13T03:26:32;7.80;;;3.80;;
58990;SDS011;44781;53.444;14.476;2022-12-13T03:29:01;35.10;;;11.90;;
58990;SDS011;44781;53.444;14.476;2022-12-13T03:31:30;27.40;;;10.50;;
58990;SDS011;44781;53.444;14.476;2022-12-13T03:33:57;24.50;;;8.30;;
58990;SDS011;44781;53.444;14.476;2022-12-13T03:36:24;10.90;;;4.70;;
58990;SDS011;44781;53.444;14.476;2022-12-13T03:38:52;8.60;;;4.40;;
58990;SDS011;44781;53.444;14.476;2022-12-13T03:41:21;7.80;;;3.40;;
58990;SDS011;44781;53.444;14.476;2022-12-13T03:43:59;6.10;;;3.10;;
58990;SDS011;44781;53.444;14.476;2022-12-13T03:46:31;8.10;;;3.60;;
58990;SDS011;44781;53.444;14.476;2022-12-13T03:48:59;6.30;;;3.00;;
58990;SDS011;44781;53.444;14.476;2022-12-13T03:51:27;7.00;;;2.80;;
58990;SDS011;44781;53.444;14.476;2022-12-13T03:53:54;6.20;;;3.10;;
58990;SDS011;44781;53.444;14.476;2022-12-13T03:56:21;5.90;;;3.00;;
58990;SDS011;44781;53.444;14.476;2022-12-13T03:58:48;7.00;;;3.30;;
58990;SDS011;44781;53.444;14.476;2022-12-13T04:01:16;6.30;;;2.90;;
58990;SDS011;44781;53.444;14.476;2022-12-13T04:03:48;7.00;;;3.60;;
58990;SDS011;44781;53.444;14.476;2022-12-13T04:06:16;4.90;;;2.80;;
58990;SDS011;44781;53.444;14.476;2022-12-13T04:08:44;4.90;;;2.80;;
58990;SDS011;44781;53.444;14.476;2022-12-13T04:11:11;6.40;;;3.00;;
58990;SDS011;44781;53.444;14.476;2022-12-13T04:13:56;6.50;;;3.50;;
58990;SDS011;44781;53.444;14.476;2022-12-13T04:16:24;5.30;;;2.60;;
58990;SDS011;44781;53.444;14.476;2022-12-13T04:18:51;5.30;;;2.80;;
58990;SDS011;44781;53.444;14.476;2022-12-13T04:21:18;6.10;;;2.90;;
58990;SDS011;44781;53.444;14.476;2022-12-13T04:23:45;6.50;;;3.70;;
58990;SDS011;44781;53.444;14.476;2022-12-13T04:26:12;6.10;;;3.10;;
58990;SDS011;44781;53.444;14.476;2022-12-13T04:28:39;7.30;;;3.20;;
58990;SDS011;44781;53.444;14.476;2022-12-13T04:31:06;6.30;;;3.10;;
58990;SDS011;44781;53.444;14.476;2022-12-13T04:33:35;5.10;;;2.70;;
58990;SDS011;44781;53.444;14.476;2022-12-13T04:36:03;6.40;;;3.00;;
58990;SDS011;44781;53.444;14.476;2022-12-13T04:38:30;7.80;;;3.20;;
58990;SDS011;44781;53.444;14.476;2022-12-13T04:41:04;6.00;;;2.90;;
58990;SDS011;44781;53.444;14.476;2022-12-13T04:43:39;5.60;;;2.70;;
58990;SDS011;44781;53.444;14.476;2022-12-13T04:46:06;6.00;;;3.20;;
58990;SDS011;44781;53.444;14.476;2022-12-13T04:48:34;6.40;;;3.20;;
58990;SDS011;44781;53.444;14.476;2022-12-13T04:51:01;5.40;;;2.90;;
58990;SDS011;44781;53.444;14.476;2022-12-13T04:53:28;7.20;;;3.60;;
58990;SDS011;44781;53.444;14.476;2022-12-13T04:55:56;8.30;;;3.00;;
58990;SDS011;44781;53.444;14.476;2022-12-13T04:58:23;5.60;;;2.70;;
58990;SDS011;44781;53.444;14.476;2022-12-13T05:00:50;7.30;;;3.10;;
58990;SDS011;44781;53.444;14.476;2022-12-13T05:03:18;6.70;;;3.20;;
58990;SDS011;44781;53.444;14.476;2022-12-13T05:05:45;6.40;;;3.10;;
58990;SDS011;44781;53.444;14.476;2022-12-13T05:08:12;6.10;;;3.10;;
58990;SDS011;44781;53.444;14.476;2022-12-13T05:10:40;6.10;;;3.10;;
58990;SDS011;44781;53.444;14.476;2022-12-13T05:13:10;7.10;;;3.80;;
58990;SDS011;44781;53.444;14.476;2022-12-13T05:15:41;6.70;;;3.00;;
58990;SDS011;44781;53.444;14.476;2022-12-13T05:18:21;6.20;;;3.10;;
58990;SDS011;44781;53.444;14.476;2022-12-13T05:20:51;7.70;;;3.40;;
58990;SDS011;44781;53.444;14.476;2022-12-13T05:23:19;5.90;;;2.90;;
58990;SDS011;44781;53.444;14.476;2022-12-13T05:25:48;6.50;;;3.30;;
58990;SDS011;44781;53.444;14.476;2022-12-13T05:28:18;6.60;;;3.20;;
58990;SDS011;44781;53.444;14.476;2022-12-13T05:30:44;5.30;;;2.90;;
58990;SDS011;44781;53.444;14.476;2022-12-13T05:33:18;6.30;;;3.50;;
58990;SDS011;44781;53.444;14.476;2022-12-13T05:35:46;7.80;;;3.30;;
58990;SDS011;44781;53.444;14.476;2022-12-13T05:38:13;6.20;;;3.10;;
58990;SDS011;44781;53.444;14.476;2022-12-13T05:40:41;6.00;;;3.40;;
58990;SDS011;44781;53.444;14.476;2022-12-13T05:43:09;6.00;;;3.10;;
58990;SDS011;44781;53.444;14.476;2022-12-13T05:45:37;8.00;;;3.80;;
58990;SDS011;44781;53.444;14.476;2022-12-13T05:48:05;7.00;;;3.20;;
58990;SDS011;44781;53.444;14.476;2022-12-13T05:50:33;5.80;;;3.00;;
58990;SDS011;44781;53.444;14.476;2022-12-13T05:53:00;8.90;;;4.20;;
58990;SDS011;44781;53.444;14.476;2022-12-13T05:55:28;15.60;;;6.10;;
58990;SDS011;44781;53.444;14.476;2022-12-13T05:57:56;20.90;;;7.50;;
58990;SDS011;44781;53.444;14.476;2022-12-13T06:00:24;14.10;;;6.10;;
58990;SDS011;44781;53.444;14.476;2022-12-13T06:02:51;8.60;;;3.70;;
58990;SDS011;44781;53.444;14.476;2022-12-13T06:05:19;11.40;;;4.90;;
58990;SDS011;44781;53.444;14.476;2022-12-13T06:07:46;6.80;;;3.50;;
58990;SDS011;44781;53.444;14.476;2022-12-13T06:10:13;6.10;;;3.00;;
58990;SDS011;44781;53.444;14.476;2022-12-13T06:12:41;6.30;;;3.00;;
58990;SDS011;44781;53.444;14.476;2022-12-13T06:15:09;7.90;;;3.40;;
58990;SDS011;44781;53.444;14.476;2022-12-13T06:17:48;6.80;;;3.10;;
58990;SDS011;44781;53.444;14.476;2022-12-13T06:20:15;5.80;;;3.00;;
58990;SDS011;44781;53.444;14.476;2022-12-13T06:22:43;5.80;;;2.80;;
58990;SDS011;44781;53.444;14.476;2022-12-13T06:25:10;8.50;;;3.50;;
58990;SDS011;44781;53.444;14.476;2022-12-13T06:27:37;5.50;;;2.70;;
58990;SDS011;44781;53.444;14.476;2022-12-13T06:30:05;8.70;;;3.20;;
58990;SDS011;44781;53.444;14.476;2022-12-13T06:32:32;6.40;;;2.70;;
58990;SDS011;44781;53.444;14.476;2022-12-13T06:34:59;5.80;;;3.10;;
58990;SDS011;44781;53.444;14.476;2022-12-13T06:37:26;6.60;;;3.20;;
58990;SDS011;44781;53.444;14.476;2022-12-13T06:39:54;5.90;;;3.00;;
58990;SDS011;44781;53.444;14.476;2022-12-13T06:42:21;6.10;;;3.10;;
58990;SDS011;44781;53.444;14.476;2022-12-13T06:44:47;6.20;;;2.80;;
58990;SDS011;44781;53.444;14.476;2022-12-13T06:47:17;6.80;;;3.10;;
58990;SDS011;44781;53.444;14.476;2022-12-13T06:49:45;7.40;;;3.40;;
58990;SDS011;44781;53.444;14.476;2022-12-13T06:52:12;6.60;;;3.40;;
58990;SDS011;44781;53.444;14.476;2022-12-13T06:54:40;7.50;;;3.60;;
58990;SDS011;44781;53.444;14.476;2022-12-13T06:57:08;6.60;;;3.30;;
58990;SDS011;44781;53.444;14.476;2022-12-13T06:59:36;6.80;;;3.30;;
58990;SDS011;44781;53.444;14.476;2022-12-13T07:02:04;6.90;;;3.30;;
58990;SDS011;44781;53.444;14.476;2022-12-13T07:04:31;7.80;;;3.50;;
58990;SDS011;44781;53.444;14.476;2022-12-13T07:06:58;9.10;;;3.90;;
58990;SDS011;44781;53.444;14.476;2022-12-13T07:09:25;7.10;;;3.20;;
58990;SDS011;44781;53.444;14.476;2022-12-13T07:11:54;7.60;;;3.60;;
58990;SDS011;44781;53.444;14.476;2022-12-13T07:14:21;6.70;;;3.30;;
58990;SDS011;44781;53.444;14.476;2022-12-13T07:16:48;6.20;;;3.40;;
58990;SDS011;44781;53.444;14.476;2022-12-13T07:19:15;7.00;;;3.40;;
58990;SDS011;44781;53.444;14.476;2022-12-13T07:21:41;6.90;;;3.20;;
58990;SDS011;44781;53.444;14.476;2022-12-13T07:24:08;7.40;;;3.50;;
58990;SDS011;44781;53.444;14.476;2022-12-13T07:26:35;8.50;;;3.30;;
58990;SDS011;44781;53.444;14.476;2022-12-13T07:29:03;6.80;;;3.40;;
58990;SDS011;44781;53.444;14.476;2022-12-13T07:31:30;6.90;;;3.20;;
58990;SDS011;44781;53.444;14.476;2022-12-13T07:34:00;7.90;;;3.30;;
58990;SDS011;44781;53.444;14.476;2022-12-13T07:36:27;5.90;;;3.10;;
58990;SDS011;44781;53.444;14.476;2022-12-13T07:38:55;6.60;;;3.30;;
58990;SDS011;44781;53.444;14.476;2022-12-13T07:41:24;5.30;;;2.70;;
58990;SDS011;44781;53.444;14.476;2022-12-13T07:43:54;7.60;;;3.50;;
58990;SDS011;44781;53.444;14.476;2022-12-13T07:46:22;6.40;;;3.00;;
58990;SDS011;44781;53.444;14.476;2022-12-13T07:48:49;6.40;;;2.90;;
58990;SDS011;44781;53.444;14.476;2022-12-13T07:51:16;7.00;;;3.00;;
58990;SDS011;44781;53.444;14.476;2022-12-13T07:53:43;6.50;;;3.30;;
58990;SDS011;44781;53.444;14.476;2022-12-13T07:56:11;7.40;;;3.40;;
58990;SDS011;44781;53.444;14.476;2022-12-13T07:58:38;8.20;;;3.50;;
58990;SDS011;44781;53.444;14.476;2022-12-13T08:01:07;6.80;;;3.20;;
58990;SDS011;44781;53.444;14.476;2022-12-13T08:03:35;6.60;;;3.00;;
58990;SDS011;44781;53.444;14.476;2022-12-13T08:08:30;7.40;;;3.50;;
58990;SDS011;44781;53.444;14.476;2022-12-13T08:11:05;5.90;;;2.90;;
58990;SDS011;44781;53.444;14.476;2022-12-13T08:13:43;7.80;;;3.90;;
58990;SDS011;44781;53.444;14.476;2022-12-13T08:16:11;6.50;;;3.50;;
58990;SDS011;44781;53.444;14.476;2022-12-13T08:18:40;9.10;;;4.10;;
58990;SDS011;44781;53.444;14.476;2022-12-13T08:21:09;7.90;;;4.00;;
58990;SDS011;44781;53.444;14.476;2022-12-13T08:23:37;7.20;;;3.60;;
58990;SDS011;44781;53.444;14.476;2022-12-13T08:26:05;6.60;;;3.60;;
58990;SDS011;44781;53.444;14.476;2022-12-13T08:28:32;7.40;;;3.10;;
58990;SDS011;44781;53.444;14.476;2022-12-13T08:31:07;7.00;;;3.20;;
58990;SDS011;44781;53.444;14.476;2022-12-13T08:36:12;6.10;;;3.30;;
58990;SDS011;44781;53.444;14.476;2022-12-13T08:38:44;8.20;;;3.30;;
58990;SDS011;44781;53.444;14.476;2022-12-13T08:41:11;7.40;;;3.50;;
58990;SDS011;44781;53.444;14.476;2022-12-13T08:43:41;9.50;;;5.00;;
58990;SDS011;44781;53.444;14.476;2022-12-13T08:46:08;8.30;;;4.20;;
58990;SDS011;44781;53.444;14.476;2022-12-13T08:48:36;6.90;;;3.70;;
58990;SDS011;44781;53.444;14.476;2022-12-13T08:51:07;8.70;;;3.80;;
58990;SDS011;44781;53.444;14.476;2022-12-13T08:53:39;7.80;;;3.90;;
58990;SDS011;44781;53.444;14.476;2022-12-13T08:56:09;6.90;;;4.00;;
58990;SDS011;44781;53.444;14.476;2022-12-13T08:58:38;6.50;;;3.80;;
58990;SDS011;44781;53.444;14.476;2022-12-13T09:01:08;6.80;;;3.10;;
58990;SDS011;44781;53.444;14.476;2022-12-13T09:03:35;7.40;;;3.50;;
58990;SDS011;44781;53.444;14.476;2022-12-13T09:06:07;6.80;;;3.50;;
58990;SDS011;44781;53.444;14.476;2022-12-13T09:08:36;7.20;;;3.30;;
58990;SDS011;44781;53.444;14.476;2022-12-13T09:11:07;7.70;;;3.60;;
58990;SDS011;44781;53.444;14.476;2022-12-13T09:13:36;7.10;;;3.60;;
58990;SDS011;44781;53.444;14.476;2022-12-13T09:16:18;7.30;;;3.30;;
58990;SDS011;44781;53.444;14.476;2022-12-13T09:18:50;7.20;;;3.80;;
58990;SDS011;44781;53.444;14.476;2022-12-13T09:21:18;7.30;;;4.00;;
58990;SDS011;44781;53.444;14.476;2022-12-13T09:23:46;7.90;;;3.80;;
58990;SDS011;44781;53.444;14.476;2022-12-13T09:26:14;8.40;;;3.40;;
58990;SDS011;44781;53.444;14.476;2022-12-13T09:28:44;6.10;;;3.10;;
58990;SDS011;44781;53.444;14.476;2022-12-13T09:31:12;9.20;;;4.50;;
58990;SDS011;44781;53.444;14.476;2022-12-13T09:33:41;7.90;;;3.70;;
58990;SDS011;44781;53.444;14.476;2022-12-13T09:36:10;8.80;;;3.50;;
58990;SDS011;44781;53.444;14.476;2022-12-13T09:38:39;7.70;;;3.40;;
58990;SDS011;44781;53.444;14.476;2022-12-13T09:41:20;6.60;;;3.00;;
58990;SDS011;44781;53.444;14.476;2022-12-13T09:44:18;7.60;;;3.00;;
58990;SDS011;44781;53.444;14.476;2022-12-13T09:46:47;6.80;;;3.20;;
58990;SDS011;44781;53.444;14.476;2022-12-13T09:51:48;7.60;;;2.90;;
58990;SDS011;44781;53.444;14.476;2022-12-13T09:54:21;5.80;;;2.60;;
58990;SDS011;44781;53.444;14.476;2022-12-13T09:56:49;6.70;;;2.50;;
58990;SDS011;44781;53.444;14.476;2022-12-13T09:59:39;5.40;;;2.70;;
58990;SDS011;44781;53.444;14.476;2022-12-13T10:02:14;6.20;;;2.50;;
58990;SDS011;44781;53.444;14.476;2022-12-13T10:04:48;5.70;;;2.80;;
58990;SDS011;44781;53.444;14.476;2022-12-13T10:07:20;6.20;;;2.60;;
58990;SDS011;44781;53.444;14.476;2022-12-13T10:09:55;6.60;;;3.00;;
58990;SDS011;44781;53.444;14.476;2022-12-13T10:12:30;6.10;;;2.70;;
58990;SDS011;44781;53.444;14.476;2022-12-13T10:15:03;6.10;;;2.80;;
58990;SDS011;44781;53.444;14.476;2022-12-13T10:17:32;5.20;;;2.20;;
58990;SDS011;44781;53.444;14.476;2022-12-13T10:20:04;6.20;;;2.60;;
58990;SDS011;44781;53.444;14.476;2022-12-13T10:22:51;6.20;;;2.40;;
58990;SDS011;44781;53.444;14.476;2022-12-13T10:25:38;4.50;;;2.10;;
58990;SDS011;44781;53.444;14.476;2022-12-13T10:28:37;4.70;;;2.10;;
58990;SDS011;44781;53.444;14.476;2022-12-13T10:31:15;6.40;;;2.40;;
58990;SDS011;44781;53.444;14.476;2022-12-13T10:33:53;7.20;;;2.20;;
58990;SDS011;44781;53.444;14.476;2022-12-13T10:36:34;3.70;;;2.00;;
58990;SDS011;44781;53.444;14.476;2022-12-13T10:39:13;5.80;;;2.40;;
58990;SDS011;44781;53.444;14.476;2022-12-13T10:42:16;5.60;;;2.60;;
58990;SDS011;44781;53.444;14.476;2022-12-13T10:44:45;5.70;;;2.50;;
58990;SDS011;44781;53.444;14.476;2022-12-13T10:47:16;5.30;;;2.30;;
58990;SDS011;44781;53.444;14.476;2022-12-13T10:52:21;5.80;;;2.40;;
58990;SDS011;44781;53.444;14.476;2022-12-13T10:54:49;6.00;;;2.50;;
58990;SDS011;44781;53.444;14.476;2022-12-13T10:57:17;4.60;;;2.30;;
58990;SDS011;44781;53.444;14.476;2022-12-13T10:59:45;6.30;;;2.70;;
58990;SDS011;44781;53.444;14.476;2022-12-13T11:04:48;7.40;;;3.30;;
58990;SDS011;44781;53.444;14.476;2022-12-13T11:07:23;8.60;;;4.50;;
58990;SDS011;44781;53.444;14.476;2022-12-13T11:09:50;6.60;;;3.20;;
58990;SDS011;44781;53.444;14.476;2022-12-13T11:12:19;9.70;;;4.30;;
58990;SDS011;44781;53.444;14.476;2022-12-13T11:15:02;9.50;;;4.80;;
58990;SDS011;44781;53.444;14.476;2022-12-13T11:17:32;6.60;;;3.20;;
58990;SDS011;44781;53.444;14.476;2022-12-13T11:20:16;7.70;;;3.60;;
58990;SDS011;44781;53.444;14.476;2022-12-13T11:22:46;7.30;;;3.60;;
58990;SDS011;44781;53.444;14.476;2022-12-13T11:25:19;6.20;;;3.30;;
58990;SDS011;44781;53.444;14.476;2022-12-13T11:41:28;6.10;;;3.20;;
58990;SDS011;44781;53.444;14.476;2022-12-13T11:46:55;7.30;;;3.40;;
58990;SDS011;44781;53.444;14.476;2022-12-13T11:49:32;6.90;;;3.20;;
58990;SDS011;44781;53.444;14.476;2022-12-13T11:52:12;6.30;;;3.20;;
58990;SDS011;44781;53.444;14.476;2022-12-13T11:55:00;6.50;;;2.90;;
58990;SDS011;44781;53.444;14.476;2022-12-13T11:57:46;5.30;;;2.30;;
58990;SDS011;44781;53.444;14.476;2022-12-13T12:05:32;5.70;;;2.60;;
58990;SDS011;44781;53.444;14.476;2022-12-13T12:08:15;5.10;;;2.40;;
58990;SDS011;44781;53.444;14.476;2022-12-13T12:10:50;5.30;;;2.40;;
58990;SDS011;44781;53.444;14.476;2022-12-13T12:13:30;4.50;;;2.30;;
58990;SDS011;44781;53.444;14.476;2022-12-13T12:18:57;6.20;;;2.50;;
58990;SDS011;44781;53.444;14.476;2022-12-13T12:21:35;4.30;;;2.10;;
58990;SDS011;44781;53.444;14.476;2022-12-13T12:24:10;4.40;;;2.30;;
58990;SDS011;44781;53.444;14.476;2022-12-13T12:37:30;5.00;;;2.20;;
58990;SDS011;44781;53.444;14.476;2022-12-13T12:40:26;6.30;;;3.00;;
58990;SDS011;44781;53.444;14.476;2022-12-13T12:43:09;3.70;;;1.80;;
58990;SDS011;44781;53.444;14.476;2022-12-13T12:48:30;5.70;;;2.20;;
58990;SDS011;44781;53.444;14.476;2022-12-13T12:51:24;4.60;;;2.10;;
58990;SDS011;44781;53.444;14.476;2022-12-13T12:56:57;5.00;;;1.90;;
58990;SDS011;44781;53.444;14.476;2022-12-13T13:04:45;2.50;;;1.40;;
58990;SDS011;44781;53.444;14.476;2022-12-13T13:07:21;2.80;;;1.70;;
58990;SDS011;44781;53.444;14.476;2022-12-13T13:09:53;3.20;;;1.30;;
58990;SDS011;44781;53.444;14.476;2022-12-13T13:12:21;3.50;;;1.80;;
58990;SDS011;44781;53.444;14.476;2022-12-13T13:14:50;3.70;;;1.70;;
58990;SDS011;44781;53.444;14.476;2022-12-13T13:19:55;4.00;;;1.80;;
58990;SDS011;44781;53.444;14.476;2022-12-13T13:22:49;3.60;;;1.60;;
58990;SDS011;44781;53.444;14.476;2022-12-13T13:25:23;3.90;;;1.70;;
58990;SDS011;44781;53.444;14.476;2022-12-13T13:28:03;4.10;;;1.60;;
58990;SDS011;44781;53.444;14.476;2022-12-13T13:30:32;5.60;;;2.50;;
58990;SDS011;44781;53.444;14.476;2022-12-13T13:33:01;7.00;;;2.90;;
58990;SDS011;44781;53.444;14.476;2022-12-13T13:40:50;9.80;;;4.30;;
58990;SDS011;44781;53.444;14.476;2022-12-13T13:43:26;8.40;;;4.50;;
58990;SDS011;44781;53.444;14.476;2022-12-13T13:54:15;9.90;;;4.90;;
58990;SDS011;44781;53.444;14.476;2022-12-13T13:59:40;11.20;;;6.10;;
58990;SDS011;44781;53.444;14.476;2022-12-13T14:05:57;11.90;;;7.20;;
58990;SDS011;44781;53.444;14.476;2022-12-13T14:08:59;11.90;;;7.10;;
58990;SDS011;44781;53.444;14.476;2022-12-13T14:23:34;15.30;;;8.50;;
58990;SDS011;44781;53.444;14.476;2022-12-13T14:29:10;17.90;;;10.40;;
58990;SDS011;44781;53.444;14.476;2022-12-13T14:34:16;20.50;;;12.40;;
58990;SDS011;44781;53.444;14.476;2022-12-13T14:39:26;23.80;;;13.90;;
58990;SDS011;44781;53.444;14.476;2022-12-13T14:41:58;21.50;;;11.30;;
58990;SDS011;44781;53.444;14.476;2022-12-13T14:44:27;21.90;;;11.90;;
58990;SDS011;44781;53.444;14.476;2022-12-13T14:47:00;22.40;;;13.10;;
58990;SDS011;44781;53.444;14.476;2022-12-13T14:49:30;21.70;;;11.60;;
58990;SDS011;44781;53.444;14.476;2022-12-13T14:52:15;20.10;;;12.30;;
58990;SDS011;44781;53.444;14.476;2022-12-13T14:54:55;18.30;;;10.70;;
58990;SDS011;44781;53.444;14.476;2022-12-13T14:57:23;22.40;;;11.50;;
58990;SDS011;44781;53.444;14.476;2022-12-13T14:59:53;22.00;;;13.00;;
58990;SDS011;44781;53.444;14.476;2022-12-13T15:02:26;21.40;;;12.80;;
58990;SDS011;44781;53.444;14.476;2022-12-13T15:04:59;22.20;;;12.00;;
58990;SDS011;44781;53.444;14.476;2022-12-13T15:07:30;20.10;;;11.60;;
58990;SDS011;44781;53.444;14.476;2022-12-13T15:10:04;17.30;;;11.10;;
58990;SDS011;44781;53.444;14.476;2022-12-13T15:12:44;20.80;;;11.60;;
58990;SDS011;44781;53.444;14.476;2022-12-13T15:17:49;20.60;;;12.00;;
58990;SDS011;44781;53.444;14.476;2022-12-13T15:20:32;20.70;;;11.70;;
58990;SDS011;44781;53.444;14.476;2022-12-13T15:23:20;21.00;;;12.20;;
58990;SDS011;44781;53.444;14.476;2022-12-13T15:26:24;26.50;;;14.90;;
58990;SDS011;44781;53.444;14.476;2022-12-13T15:28:48;20.00;;;11.20;;
58990;SDS011;44781;53.444;14.476;2022-12-13T15:31:20;18.20;;;11.10;;
58990;SDS011;44781;53.444;14.476;2022-12-13T15:33:48;23.30;;;13.50;;
58990;SDS011;44781;53.444;14.476;2022-12-13T15:36:35;22.40;;;13.10;;
58990;SDS011;44781;53.444;14.476;2022-12-13T15:39:09;28.70;;;18.50;;
58990;SDS011;44781;53.444;14.476;2022-12-13T15:41:44;27.00;;;15.00;;
58990;SDS011;44781;53.444;14.476;2022-12-13T15:44:19;25.60;;;15.60;;
58990;SDS011;44781;53.444;14.476;2022-12-13T15:46:55;31.60;;;18.20;;
58990;SDS011;44781;53.444;14.476;2022-12-13T15:49:33;25.90;;;15.60;;
58990;SDS011;44781;53.444;14.476;2022-12-13T15:54:41;28.40;;;16.10;;
58990;SDS011;44781;53.444;14.476;2022-12-13T15:57:23;23.70;;;12.30;;
58990;SDS011;44781;53.444;14.476;2022-12-13T16:02:49;23.00;;;14.00;;
58990;SDS011;44781;53.444;14.476;2022-12-13T16:05:29;26.20;;;13.60;;
58990;SDS011;44781;53.444;14.476;2022-12-13T16:07:59;27.70;;;15.40;;
58990;SDS011;44781;53.444;14.476;2022-12-13T16:10:32;28.00;;;16.90;;
58990;SDS011;44781;53.444;14.476;2022-12-13T16:13:03;25.10;;;14.20;;
58990;SDS011;44781;53.444;14.476;2022-12-13T16:15:48;28.10;;;15.60;;
58990;SDS011;44781;53.444;14.476;2022-12-13T16:18:19;23.40;;;14.20;;
58990;SDS011;44781;53.444;14.476;2022-12-13T16:20:49;22.50;;;13.80;;
58990;SDS011;44781;53.444;14.476;2022-12-13T16:23:17;25.10;;;14.00;;
58990;SDS011;44781;53.444;14.476;2022-12-13T16:25:44;22.30;;;14.00;;
58990;SDS011;44781;53.444;14.476;2022-12-13T16:28:12;21.60;;;12.60;;
58990;SDS011;44781;53.444;14.476;2022-12-13T16:33:19;25.70;;;15.80;;
58990;SDS011;44781;53.444;14.476;2022-12-13T16:35:50;26.10;;;15.60;;
58990;SDS011;44781;53.444;14.476;2022-12-13T16:38:20;19.30;;;12.50;;
58990;SDS011;44781;53.444;14.476;2022-12-13T16:40:52;21.40;;;13.40;;
58990;SDS011;44781;53.444;14.476;2022-12-13T16:43:22;21.70;;;13.60;;
58990;SDS011;44781;53.444;14.476;2022-12-13T16:45:52;21.10;;;11.40;;
58990;SDS011;44781;53.444;14.476;2022-12-13T16:48:21;21.00;;;12.40;;
58990;SDS011;44781;53.444;14.476;2022-12-13T16:50:50;23.90;;;14.40;;
58990;SDS011;44781;53.444;14.476;2022-12-13T16:53:19;23.20;;;14.90;;
58990;SDS011;44781;53.444;14.476;2022-12-13T16:55:46;28.80;;;16.60;;
58990;SDS011;44781;53.444;14.476;2022-12-13T16:58:17;28.40;;;15.80;;
58990;SDS011;44781;53.444;14.476;2022-12-13T17:00:46;26.30;;;15.80;;
58990;SDS011;44781;53.444;14.476;2022-12-13T17:03:13;22.50;;;12.80;;
58990;SDS011;44781;53.444;14.476;2022-12-13T17:05:41;23.90;;;13.80;;
58990;SDS011;44781;53.444;14.476;2022-12-13T17:08:11;22.70;;;13.90;;
58990;SDS011;44781;53.444;14.476;2022-12-13T17:10:39;25.60;;;14.20;;
58990;SDS011;44781;53.444;14.476;2022-12-13T17:13:08;24.80;;;15.20;;
58990;SDS011;44781;53.444;14.476;2022-12-13T17:15:36;29.20;;;17.70;;
58990;SDS011;44781;53.444;14.476;2022-12-13T17:18:04;29.90;;;16.70;;
58990;SDS011;44781;53.444;14.476;2022-12-13T17:20:32;23.70;;;15.80;;